PWSweather.com
Personal Weather Stations
Station Observations
CAPEBRETON
Mira Road, Sydney, NS

Mira RoadSydney, NS

Lat: 46.1207292, Lon: -60.1594642

Elevation: 175

Station Type: LaCrosse Weather Pro Center 2800 Series

http://pwscapebreton.weebly.com/

Latest ConditionsUpdated 3:03:14 AM GMT-04:56 Saturday, Nov 29, 2014
Currently Today's Max Today's Min Today's Average
Temperature 29.5°F-1.4°C 29.9°F-1.2°C 29.2°F-1.6°C 29.5°F-1.4°C
Dew Point 23.5°F-4.7°C 24.6°F-4.1°C 23.0°F-5.0°C 23.7°F-4.6°C
Winds 1.6 mph 2.6 kmh 1.8 mph 2.9 kmh - 0.9 mph 1.4 kmh
Wind Gusts 2.5 mph4.0 kmh 3.4 mph5.5 kmh - -
Humidity 78% 81% 77% 79%
Pressure 29.86 in1011.2 mb 29.86 in1011.2 mb 29.83 in1010.2 mb -
Hour Temp Dew Point Humidity Winds Wind Gusts Pressure Precip Precip Rate Daily Precip Total
03:03 AM 29.5°F-1.4°C 23.5°F-4.7°C 78% 1.6 mph 2.6 kmh 2.5 mph4.0 kmh 29.86 in1011.2 mb 0.00 in0.0 mm 0.00 in/hr0.0 mm/hr 0.00 in0.0 mm
02:58 AM 29.3°F-1.5°C 23.0°F-5.0°C 77% 1.1 mph 1.8 kmh 1.8 mph2.9 kmh 29.86 in1011.2 mb 0.00 in0.0 mm 0.00 in/hr0.0 mm/hr 0.00 in0.0 mm
02:53 AM 29.5°F-1.4°C 23.1°F-4.9°C 77% 0.4 mph 0.6 kmh 1.3 mph2.1 kmh 29.86 in1011.2 mb 0.00 in0.0 mm 0.00 in/hr0.0 mm/hr 0.00 in0.0 mm
02:48 AM 29.3°F-1.5°C 23.0°F-5.0°C 77% 0.9 mph 1.4 kmh 1.3 mph2.1 kmh 29.86 in1011.2 mb 0.00 in0.0 mm 0.00 in/hr0.0 mm/hr 0.00 in0.0 mm
02:43 AM 29.3°F-1.5°C 23.0°F-5.0°C 77% 0.5 mph 0.8 kmh 1.1 mph1.8 kmh 29.86 in1011.2 mb 0.00 in0.0 mm 0.00 in/hr0.0 mm/hr 0.00 in0.0 mm
02:38 AM 29.5°F-1.4°C 23.1°F-4.9°C 77% 0.6 mph 1.0 kmh 1.1 mph1.8 kmh 29.86 in1011.2 mb 0.00 in0.0 mm 0.00 in/hr0.0 mm/hr 0.00 in0.0 mm
02:33 AM 29.3°F-1.5°C 23.0°F-5.0°C 77% 0.5 mph 0.8 kmh 1.6 mph2.6 kmh 29.86 in1011.2 mb 0.00 in0.0 mm 0.00 in/hr0.0 mm/hr 0.00 in0.0 mm
02:28 AM 29.3°F-1.5°C 23.3°F-4.8°C 78% 0.8 mph 1.3 kmh 1.6 mph2.6 kmh 29.86 in1011.2 mb 0.00 in0.0 mm 0.00 in/hr0.0 mm/hr 0.00 in0.0 mm
02:23 AM 29.3°F-1.5°C 23.3°F-4.8°C 78% 0.9 mph 1.4 kmh 1.6 mph2.6 kmh 29.86 in1011.2 mb 0.00 in0.0 mm 0.00 in/hr0.0 mm/hr 0.00 in0.0 mm
02:18 AM 29.3°F-1.5°C 23.7°F-4.6°C 79% 0.4 mph 0.6 kmh 1.3 mph2.1 kmh 29.86 in1011.2 mb 0.00 in0.0 mm 0.00 in/hr0.0 mm/hr 0.00 in0.0 mm
02:13 AM 29.2°F-1.6°C 23.5°F-4.7°C 79% 1.0 mph 1.6 kmh 1.3 mph2.1 kmh 29.86 in1011.2 mb 0.00 in0.0 mm 0.00 in/hr0.0 mm/hr 0.00 in0.0 mm
02:08 AM 29.2°F-1.6°C 23.5°F-4.7°C 79% Calm Calm 0.4 mph0.6 kmh 29.86 in1011.2 mb 0.00 in0.0 mm 0.00 in/hr0.0 mm/hr 0.00 in0.0 mm
02:03 AM 29.2°F-1.6°C 23.5°F-4.7°C 79% Calm Calm 0.7 mph1.1 kmh 29.86 in1011.2 mb 0.00 in0.0 mm 0.00 in/hr0.0 mm/hr 0.00 in0.0 mm
01:58 AM 29.2°F-1.6°C 23.5°F-4.7°C 79% 0.5 mph 0.8 kmh 1.1 mph1.8 kmh 29.86 in1011.2 mb 0.00 in0.0 mm 0.00 in/hr0.0 mm/hr 0.00 in0.0 mm
01:53 AM 29.2°F-1.6°C 23.5°F-4.7°C 79% Calm Calm 1.3 mph2.1 kmh 29.86 in1011.2 mb 0.00 in0.0 mm 0.00 in/hr0.0 mm/hr 0.00 in0.0 mm
01:48 AM 29.2°F-1.6°C 23.1°F-4.9°C 78% 0.5 mph 0.8 kmh 1.3 mph2.1 kmh 29.86 in1011.2 mb 0.00 in0.0 mm 0.00 in/hr0.0 mm/hr 0.00 in0.0 mm
01:43 AM 29.2°F-1.6°C 23.5°F-4.7°C 79% 0.5 mph 0.8 kmh 1.3 mph2.1 kmh 29.85 in1010.8 mb 0.00 in0.0 mm 0.00 in/hr0.0 mm/hr 0.00 in0.0 mm
01:37 AM 29.2°F-1.6°C 23.5°F-4.7°C 79% 0.5 mph 0.8 kmh 1.6 mph2.6 kmh 29.85 in1010.8 mb 0.00 in0.0 mm 0.00 in/hr0.0 mm/hr 0.00 in0.0 mm
01:33 AM 29.2°F-1.6°C 23.5°F-4.7°C 79% 0.9 mph 1.4 kmh 2.2 mph3.5 kmh 29.84 in1010.5 mb 0.00 in0.0 mm 0.00 in/hr0.0 mm/hr 0.00 in0.0 mm
01:28 AM 29.3°F-1.5°C 23.7°F-4.6°C 79% 0.9 mph 1.4 kmh 2.2 mph3.5 kmh 29.84 in1010.5 mb 0.00 in0.0 mm 0.00 in/hr0.0 mm/hr 0.00 in0.0 mm
01:22 AM 29.5°F-1.4°C 23.8°F-4.6°C 79% 0.5 mph 0.8 kmh 2.2 mph3.5 kmh 29.84 in1010.5 mb 0.00 in0.0 mm 0.00 in/hr0.0 mm/hr 0.00 in0.0 mm
01:17 AM 29.5°F-1.4°C 23.8°F-4.6°C 79% 0.9 mph 1.4 kmh 2.2 mph3.5 kmh 29.84 in1010.5 mb 0.00 in0.0 mm 0.00 in/hr0.0 mm/hr 0.00 in0.0 mm
01:12 AM 29.7°F-1.3°C 23.9°F-4.5°C 79% 1.4 mph 2.3 kmh 2.9 mph4.7 kmh 29.84 in1010.5 mb 0.00 in0.0 mm 0.00 in/hr0.0 mm/hr 0.00 in0.0 mm
01:07 AM 29.7°F-1.3°C 23.9°F-4.5°C 79% 1.6 mph 2.6 kmh 2.9 mph4.7 kmh 29.84 in1010.5 mb 0.00 in0.0 mm 0.00 in/hr0.0 mm/hr 0.00 in0.0 mm
01:02 AM 29.7°F-1.3°C 23.9°F-4.5°C 79% 0.7 mph 1.1 kmh 1.8 mph2.9 kmh 29.84 in1010.5 mb 0.00 in0.0 mm 0.00 in/hr0.0 mm/hr 0.00 in0.0 mm
12:57 AM 29.9°F-1.2°C 24.1°F-4.4°C 79% 0.7 mph 1.1 kmh 1.3 mph2.1 kmh 29.84 in1010.5 mb 0.00 in0.0 mm 0.00 in/hr0.0 mm/hr 0.00 in0.0 mm
12:52 AM 29.9°F-1.2°C 24.1°F-4.4°C 79% 1.0 mph 1.6 kmh 2.7 mph4.3 kmh 29.84 in1010.5 mb 0.00 in0.0 mm 0.00 in/hr0.0 mm/hr 0.00 in0.0 mm
12:47 AM 29.9°F-1.2°C 23.9°F-4.5°C 78% 1.7 mph 2.7 kmh 2.7 mph4.3 kmh 29.84 in1010.5 mb 0.00 in0.0 mm 0.00 in/hr0.0 mm/hr 0.00 in0.0 mm
12:42 AM 29.9°F-1.2°C 24.1°F-4.4°C 79% 1.0 mph 1.6 kmh 1.8 mph2.9 kmh 29.84 in1010.5 mb 0.00 in0.0 mm 0.00 in/hr0.0 mm/hr 0.00 in0.0 mm
12:37 AM 29.9°F-1.2°C 24.1°F-4.4°C 79% 1.2 mph 1.9 kmh 2.5 mph4.0 kmh 29.84 in1010.5 mb 0.00 in0.0 mm 0.00 in/hr0.0 mm/hr 0.00 in0.0 mm
12:32 AM 29.9°F-1.2°C 24.1°F-4.4°C 79% 1.5 mph 2.4 kmh 2.5 mph4.0 kmh 29.84 in1010.5 mb 0.00 in0.0 mm 0.00 in/hr0.0 mm/hr 0.00 in0.0 mm
12:27 AM 29.9°F-1.2°C 24.1°F-4.4°C 79% 0.8 mph 1.3 kmh 2.5 mph4.0 kmh 29.84 in1010.5 mb 0.00 in0.0 mm 0.00 in/hr0.0 mm/hr 0.00 in0.0 mm
12:22 AM 29.9°F-1.2°C 24.1°F-4.4°C 79% 0.7 mph 1.1 kmh 2.5 mph4.0 kmh 29.83 in1010.2 mb 0.00 in0.0 mm 0.00 in/hr0.0 mm/hr 0.00 in0.0 mm
12:17 AM 29.9°F-1.2°C 24.1°F-4.4°C 79% 1.0 mph 1.6 kmh 2.5 mph4.0 kmh 29.84 in1010.5 mb 0.00 in0.0 mm 0.00 in/hr0.0 mm/hr 0.00 in0.0 mm
12:12 AM 29.7°F-1.3°C 24.3°F-4.3°C 80% 1.8 mph 2.9 kmh 3.4 mph5.5 kmh 29.84 in1010.5 mb 0.00 in0.0 mm 0.00 in/hr0.0 mm/hr 0.00 in0.0 mm
12:07 AM 29.7°F-1.3°C 24.3°F-4.3°C 80% 1.3 mph 2.1 kmh 3.4 mph5.5 kmh 29.84 in1010.5 mb 0.00 in0.0 mm 0.00 in/hr0.0 mm/hr 0.00 in0.0 mm
12:02 AM 29.7°F-1.3°C 24.6°F-4.1°C 81% 1.2 mph 1.9 kmh 1.8 mph2.9 kmh 29.84 in1010.5 mb 0.00 in0.0 mm 0.00 in/hr0.0 mm/hr 0.00 in0.0 mm